Wales, Michigan
Current Conditions -  °F | °C
As of 4:57 PM on Monday 22 Dec 2014 (Local Time) from KPHN Reporting Station
Broken Clouds Broken Clouds  
Wind Chill: -3°   Ceiling: 10000
Heat Index:   Visibility: 10mi
Dew Point: -1°   Wind: 8mph
Humidity: 87%   Direction: 120°ESE
Pressure: 29.99"   Gusts: NA
Location:  42.9446°N, 82.6827°W
Report Text: KPHN 222157Z AUTO 12007KT 10SM BKN100 01/M01 A2999 RMK AO2
Loading
Personal Weather Stations






























Interactive Weather Map New forecast layout! Learn more

10-Day Weather Forecast

Advertisements
Track Severe Weather on mobile